| Date | Time | Temp. (oF) | Dew Point (oF) | Rel. Hum. (%) | Press. (in.) | Wind Dir. | Wind Speed (mph) | Hourly Rainfall (in.) |
|
|---|---|---|---|---|---|---|---|---|---|
| 1 | 06/12 | 00:00 | 77 | 70 | 80 | 29.89 | SSW | 7 | 0.00 |
| 2 | 06/11 | 23:00 | 77 | 71 | 84 | 29.88 | SSE | 3 | 0.00 |
| 3 | 06/11 | 22:00 | 78 | 70 | 79 | 29.89 | S | 2 | 0.00 |
| 4 | 06/11 | 21:00 | 79 | 69 | 74 | 29.88 | S | 1 | 0.00 |
| 5 | 06/11 | 20:00 | 82 | 70 | 68 | 29.87 | S | 3 | 0.00 |
| 6 | 06/11 | 19:00 | 83 | 68 | 62 | 29.86 | SSW | 3 | 0.00 |
| 7 | 06/11 | 18:00 | 84 | 68 | 59 | 29.85 | SW | 4 | 0.00 |
| 8 | 06/11 | 17:00 | 85 | 68 | 59 | 29.86 | SW | 7 | 0.00 |
| 9 | 06/11 | 16:00 | 83 | 67 | 59 | 29.87 | SSW | 10 | 0.00 |
| 10 | 06/11 | 15:00 | 83 | 69 | 63 | 29.88 | SSW | 3 | 0.00 |
| 11 | 06/11 | 14:00 | 81 | 70 | 70 | 29.89 | SSE | 8 | 0.00 |
| 12 | 06/11 | 13:00 | 79 | 70 | 75 | 29.90 | SW | 4 | 0.00 |
| 13 | 06/11 | 12:00 | 77 | 72 | 87 | 29.91 | SSE | 6 | 0.00 |
| 14 | 06/11 | 11:00 | 76 | 71 | 86 | 29.93 | S | 2 | 0.00 |
| 15 | 06/11 | 10:00 | 74 | 70 | 89 | 29.93 | SSE | 6 | 0.00 |
| 16 | 06/11 | 09:00 | 71 | 70 | 97 | 29.94 | SSW | 7 | 0.00 |
| 17 | 06/11 | 08:00 | 69 | 68 | 100 | 29.96 | S | 3 | 0.00 |
| 18 | 06/11 | 07:00 | 68 | 68 | 100 | 29.97 | SSW | 4 | 0.00 |
| 19 | 06/11 | 06:00 | 67 | 67 | 100 | 29.95 | S | 3 | 0.00 |
| 20 | 06/11 | 05:00 | 67 | 66 | 98 | 29.95 | SSE | 0 | 0.00 |
| 21 | 06/11 | 04:00 | 67 | 65 | 96 | 29.96 | SSW | 4 | 0.00 |
| 22 | 06/11 | 03:00 | 68 | 65 | 93 | 29.98 | S | 3 | 0.00 |
| 23 | 06/11 | 02:00 | 69 | 66 | 91 | 29.98 | S | 8 | 0.00 |
| 24 | 06/11 | 01:00 | 69 | 64 | 87 | 29.99 | SSW | 7 | 0.00 |